Time;durP1;ratioP1;P1;durP2;ratioP2;P2;SDS_P1;SDS_P2;PMS_P1;PMS_P2;Temp;Humidity;BMP_temperature;BMP_pressure;BME280_temperature;BME280_humidity;BME280_pressure;Samples;Min_cycle;Max_cycle;Signal;HPM_P1;HPM_P2
2022/10/11 00:00:56;;;;;;;9.02;6.45;;;13.60;99.90;;;;;;5034414;28;20222;-83
2022/10/11 00:03:24;;;;;;;6.85;6.03;;;13.60;99.90;;;;;;5034170;28;20213;-83
2022/10/11 00:05:53;;;;;;;7.10;6.43;;;13.60;99.90;;;;;;5033892;28;20210;-83
2022/10/11 00:08:22;;;;;;;7.28;6.65;;;13.60;99.90;;;;;;5033634;28;20226;-83
2022/10/11 00:10:57;;;;;;;7.70;5.95;;;13.60;99.90;;;;;;5034199;28;20210;-82
2022/10/11 00:13:27;;;;;;;8.98;6.50;;;13.60;99.90;;;;;;5033970;28;20218;-82
2022/10/11 00:15:58;;;;;;;10.20;7.03;;;13.60;99.90;;;;;;5033793;28;20206;-82
2022/10/11 00:18:27;;;;;;;6.72;6.13;;;13.60;99.90;;;;;;5033476;28;20252;-81
2022/10/11 00:21:03;;;;;;;8.82;6.80;;;13.60;99.90;;;;;;5033093;28;20231;-83
2022/10/11 00:23:32;;;;;;;7.10;6.22;;;13.60;99.90;;;;;;5033839;28;20233;-80
2022/10/11 00:26:01;;;;;;;7.20;6.53;;;13.60;99.90;;;;;;5033771;28;20206;-80
2022/10/11 00:28:32;;;;;;;12.30;7.25;;;13.60;99.90;;;;;;5033226;28;20238;-81
2022/10/11 00:31:01;;;;;;;8.23;5.82;;;13.60;99.90;;;;;;5033913;28;20210;-80
2022/10/11 00:33:30;;;;;;;6.85;6.15;;;13.70;99.90;;;;;;5033606;28;20206;-81
2022/10/11 00:35:59;;;;;;;6.38;5.40;;;13.60;99.90;;;;;;5033464;28;20265;-81
2022/10/11 00:38:28;;;;;;;6.57;5.93;;;13.60;99.90;;;;;;5033366;28;20236;-82
2022/10/11 00:40:59;;;;;;;6.20;5.68;;;13.60;99.90;;;;;;5033834;28;20254;-82
2022/10/11 00:43:29;;;;;;;5.53;5.10;;;13.60;99.90;;;;;;5032939;28;20207;-82
2022/10/11 00:46:27;;;;;;;6.40;5.82;;;13.70;99.90;;;;;;5033370;28;20283;-83
2022/10/11 00:49:01;;;;;;;7.22;6.53;;;13.60;99.90;;;;;;5032959;28;20210;-83
2022/10/11 00:51:41;;;;;;;6.55;5.95;;;13.70;99.90;;;;;;5033267;28;20236;-83
2022/10/11 00:54:13;;;;;;;10.68;5.88;;;13.70;99.90;;;;;;5033077;28;20230;-82
2022/10/11 00:56:43;;;;;;;5.18;4.78;;;13.60;99.90;;;;;;5033266;28;20234;-84
2022/10/11 00:59:18;;;;;;;6.57;5.97;;;13.70;99.90;;;;;;5032905;28;20206;-83
2022/10/11 01:01:47;;;;;;;5.80;5.28;;;13.70;99.90;;;;;;5033317;28;20210;-83
2022/10/11 01:04:16;;;;;;;6.43;5.80;;;13.70;99.90;;;;;;5032829;28;20253;-84
2022/10/11 01:06:45;;;;;;;10.32;5.82;;;13.70;99.90;;;;;;5033168;28;20230;-84
2022/10/11 01:09:14;;;;;;;7.40;5.72;;;13.70;99.90;;;;;;5032647;28;20206;-84
2022/10/11 01:11:43;;;;;;;5.80;5.30;;;13.70;99.90;;;;;;5032937;28;20218;-83
2022/10/11 01:14:33;;;;;;;5.63;5.20;;;13.70;99.90;;;;;;5032627;28;20238;-82
2022/10/11 01:17:10;;;;;;;7.15;5.38;;;13.70;99.90;;;;;;5030468;28;20226;-83
2022/10/11 01:20:20;;;;;;;8.68;6.30;;;13.70;99.90;;;;;;5032600;28;20210;-82
2022/10/11 01:23:17;;;;;;;6.53;5.88;;;13.80;99.90;;;;;;4998922;28;20211;-83
2022/10/11 01:25:58;;;;;;;9.75;5.18;;;13.80;99.90;;;;;;5032988;28;20205;-82
2022/10/11 01:28:41;;;;;;;5.72;5.10;;;13.70;99.90;;;;;;5032620;28;20230;-83
2022/10/11 01:31:18;;;;;;;5.13;4.63;;;13.80;99.90;;;;;;5032985;28;20222;-83
2022/10/11 01:33:52;;;;;;;5.30;4.80;;;13.70;99.90;;;;;;5037245;28;20209;-83
2022/10/11 01:36:27;;;;;;;5.65;5.10;;;13.80;99.90;;;;;;5039192;28;20229;-82
2022/10/11 01:39:00;;;;;;;5.35;4.85;;;13.80;99.90;;;;;;5039204;28;20205;-83
2022/10/11 01:41:34;;;;;;;5.20;4.70;;;13.70;99.90;;;;;;5039318;28;20281;-82
2022/10/11 01:44:04;;;;;;;5.70;5.20;;;13.70;99.90;;;;;;5038466;28;20217;-83
2022/10/11 01:46:36;;;;;;;4.88;4.47;;;13.70;99.90;;;;;;5038977;28;20206;-83
2022/10/11 01:49:05;;;;;;;5.90;5.32;;;13.70;99.90;;;;;;5038934;28;20218;-82
2022/10/11 01:51:36;;;;;;;5.13;4.63;;;13.70;99.90;;;;;;5039605;28;20210;-83
2022/10/11 01:54:18;;;;;;;4.70;4.30;;;13.70;99.90;;;;;;5038985;28;20206;-83
2022/10/11 01:57:14;;;;;;;6.90;5.00;;;13.70;99.90;;;;;;5039114;28;20230;-83
2022/10/11 01:59:55;;;;;;;11.32;5.07;;;13.60;99.90;;;;;;5038646;28;20214;-84
2022/10/11 02:02:36;;;;;;;6.50;5.20;;;13.60;99.90;;;;;;5039077;28;20210;-83
2022/10/11 02:05:12;;;;;;;5.47;5.07;;;13.50;99.90;;;;;;5039206;28;20206;-83
2022/10/11 02:07:45;;;;;;;5.30;4.72;;;13.50;99.90;;;;;;5039163;28;20234;-83
2022/10/11 02:10:18;;;;;;;6.53;5.47;;;13.50;99.90;;;;;;5038765;28;20214;-82
2022/10/11 02:12:51;;;;;;;6.93;4.95;;;13.50;99.90;;;;;;5038794;28;20210;-83
2022/10/11 02:15:21;;;;;;;12.32;5.55;;;13.40;99.90;;;;;;5038629;28;20237;-83
2022/10/11 02:17:56;;;;;;;5.70;5.20;;;13.40;99.90;;;;;;5038795;28;20234;-83
2022/10/11 02:20:26;;;;;;;5.80;4.55;;;13.40;99.90;;;;;;5038899;28;20209;-83
2022/10/11 02:23:00;;;;;;;5.20;4.75;;;13.40;99.90;;;;;;5038777;28;20224;-83
2022/10/11 02:25:33;;;;;;;5.43;4.88;;;13.40;99.90;;;;;;5039301;28;20203;-83
2022/10/11 02:28:04;;;;;;;6.18;5.60;;;13.40;99.90;;;;;;5038681;28;20245;-83
2022/10/11 02:30:33;;;;;;;9.65;5.50;;;13.30;99.90;;;;;;5038816;28;20217;-84
2022/10/11 02:33:06;;;;;;;18.20;5.35;;;13.30;99.90;;;;;;5038924;28;20214;-83
2022/10/11 02:35:40;;;;;;;7.93;5.35;;;13.30;99.90;;;;;;5038445;28;20237;-84
2022/10/11 02:38:17;;;;;;;10.88;5.55;;;13.30;99.90;;;;;;5038744;28;20226;-84
2022/10/11 02:40:50;;;;;;;8.30;5.43;;;13.30;99.90;;;;;;5038587;28;20206;-83
2022/10/11 02:43:28;;;;;;;6.70;5.97;;;13.20;99.90;;;;;;5038696;28;20206;-83
2022/10/11 02:45:59;;;;;;;7.22;6.25;;;13.20;99.90;;;;;;5035172;28;20202;-83
2022/10/11 02:48:31;;;;;;;7.30;5.28;;;13.20;99.90;;;;;;5035106;28;20233;-84
2022/10/11 02:50:59;;;;;;;8.63;5.97;;;13.20;99.90;;;;;;5035630;28;20210;-84
2022/10/11 02:53:28;;;;;;;6.45;5.75;;;13.20;99.90;;;;;;5035330;28;20210;-83
2022/10/11 02:55:56;;;;;;;6.07;5.47;;;13.20;99.90;;;;;;5034933;28;20222;-83
2022/10/11 02:58:25;;;;;;;6.50;5.65;;;13.20;99.90;;;;;;5035288;28;20230;-83
2022/10/11 03:00:53;;;;;;;5.78;4.85;;;13.20;99.90;;;;;;5035143;28;20218;-84
2022/10/11 03:03:21;;;;;;;5.68;5.18;;;13.20;99.90;;;;;;5035280;28;20202;-81
2022/10/11 03:05:51;;;;;;;6.50;5.80;;;13.20;99.90;;;;;;5035226;28;20214;-82
2022/10/11 03:08:19;;;;;;;9.40;5.70;;;13.20;99.90;;;;;;5034979;28;20242;-82
2022/10/11 03:10:47;;;;;;;5.90;4.97;;;13.20;99.90;;;;;;5035033;28;20237;-82
2022/10/11 03:13:16;;;;;;;6.70;5.47;;;13.30;99.90;;;;;;5035236;28;20202;-82
2022/10/11 03:15:48;;;;;;;8.00;6.35;;;13.30;99.90;;;;;;5035060;28;20244;-82
2022/10/11 03:18:30;;;;;;;5.95;5.35;;;13.40;99.90;;;;;;5034827;28;20234;-82
2022/10/11 03:21:00;;;;;;;6.10;5.60;;;13.40;99.90;;;;;;5034696;28;20207;-82
2022/10/11 03:23:28;;;;;;;5.72;5.22;;;13.50;99.90;;;;;;5035312;28;20217;-82
2022/10/11 03:25:56;;;;;;;6.55;5.93;;;13.50;99.90;;;;;;5035103;28;20209;-82
2022/10/11 03:28:28;;;;;;;7.38;6.38;;;13.50;99.90;;;;;;5034880;28;20234;-82
2022/10/11 03:30:59;;;;;;;8.48;7.30;;;13.50;99.90;;;;;;5034651;28;20206;-82
2022/10/11 03:33:27;;;;;;;7.03;6.32;;;13.50;99.90;;;;;;5034472;28;20213;-83
2022/10/11 03:35:55;;;;;;;6.82;6.15;;;13.50;99.90;;;;;;5034768;28;20222;-83
2022/10/11 03:38:26;;;;;;;7.97;6.28;;;13.50;99.90;;;;;;5034508;28;20226;-82
2022/10/11 03:40:54;;;;;;;7.88;7.07;;;13.40;99.90;;;;;;5034595;28;20210;-82
2022/10/11 03:43:22;;;;;;;8.25;6.90;;;13.40;99.90;;;;;;5033928;28;20211;-82
2022/10/11 03:45:50;;;;;;;6.75;6.00;;;13.50;99.90;;;;;;5033917;28;20221;-83
2022/10/11 03:48:19;;;;;;;6.90;6.20;;;13.50;99.90;;;;;;5034063;28;20226;-81
2022/10/11 03:50:48;;;;;;;9.20;7.38;;;13.50;99.90;;;;;;5034331;28;20213;-83
2022/10/11 03:53:17;;;;;;;6.88;6.28;;;13.50;99.90;;;;;;5034342;28;20202;-84
2022/10/11 03:55:51;;;;;;;10.00;7.38;;;13.50;99.90;;;;;;5033404;28;20223;-83
2022/10/11 03:58:23;;;;;;;7.07;6.38;;;13.50;99.90;;;;;;5033904;28;20241;-82
2022/10/11 04:00:53;;;;;;;6.75;6.15;;;13.50;99.90;;;;;;5033658;28;20202;-83
2022/10/11 04:03:21;;;;;;;7.97;7.20;;;13.50;99.90;;;;;;5034212;28;20218;-83
2022/10/11 04:05:50;;;;;;;11.75;6.38;;;13.50;99.90;;;;;;5033908;28;20234;-83
2022/10/11 04:08:18;;;;;;;15.68;8.27;;;13.50;99.90;;;;;;5033621;28;20226;-83
2022/10/11 04:10:48;;;;;;;7.65;6.95;;;13.50;99.90;;;;;;5033991;28;20210;-83
2022/10/11 04:13:16;;;;;;;7.45;6.75;;;13.50;99.90;;;;;;5033972;28;20213;-83
2022/10/11 04:15:45;;;;;;;8.15;6.80;;;13.60;99.90;;;;;;5033529;28;20230;-83
2022/10/11 04:18:13;;;;;;;8.90;8.02;;;13.60;99.90;;;;;;5033642;28;20222;-83
2022/10/11 04:20:42;;;;;;;7.50;6.78;;;13.50;99.90;;;;;;5033601;28;20301;-83
2022/10/11 04:23:10;;;;;;;6.43;5.93;;;13.60;99.90;;;;;;5034112;28;20217;-84
2022/10/11 04:25:38;;;;;;;8.02;7.22;;;13.50;99.90;;;;;;5033614;28;20205;-84
2022/10/11 04:28:08;;;;;;;8.32;7.53;;;13.60;99.90;;;;;;5033428;28;20254;-82
2022/10/11 04:30:37;;;;;;;8.80;7.38;;;13.60;99.90;;;;;;5033573;28;20261;-82
2022/10/11 04:33:05;;;;;;;8.27;7.50;;;13.50;99.90;;;;;;5033588;28;20241;-83
2022/10/11 04:35:33;;;;;;;8.93;8.02;;;13.50;99.90;;;;;;5033311;28;20206;-82
2022/10/11 04:38:02;;;;;;;9.77;7.45;;;13.50;99.90;;;;;;5033262;28;20238;-83
2022/10/11 04:40:32;;;;;;;11.20;7.72;;;13.50;99.90;;;;;;5033035;28;20230;-83
2022/10/11 04:43:01;;;;;;;9.63;7.47;;;13.50;99.90;;;;;;5033650;28;20198;-82
2022/10/11 04:45:31;;;;;;;8.80;7.95;;;13.50;99.90;;;;;;5033043;28;20209;-83
2022/10/11 04:47:59;;;;;;;9.40;8.38;;;13.50;99.90;;;;;;5033231;28;20245;-82
2022/10/11 04:50:28;;;;;;;8.60;7.80;;;13.50;99.90;;;;;;5032900;28;20214;-82
2022/10/11 04:52:59;;;;;;;12.13;8.75;;;13.50;99.90;;;;;;5033024;28;20206;-82
2022/10/11 04:55:32;;;;;;;9.80;8.63;;;13.50;99.90;;;;;;5033339;28;20209;-83
2022/10/11 04:58:01;;;;;;;9.93;8.38;;;13.60;99.90;;;;;;5032613;28;20234;-83
2022/10/11 05:00:32;;;;;;;8.57;7.70;;;13.50;99.90;;;;;;5032912;28;20217;-83
2022/10/11 05:03:01;;;;;;;8.93;7.50;;;13.50;99.90;;;;;;5033054;28;20206;-82
2022/10/11 05:05:30;;;;;;;8.13;7.35;;;13.50;99.90;;;;;;5032988;28;20210;-82
2022/10/11 05:07:58;;;;;;;9.95;8.45;;;13.50;99.90;;;;;;5032453;28;20226;-82
2022/10/11 05:10:27;;;;;;;7.57;6.93;;;13.50;99.90;;;;;;5032627;28;20213;-82
2022/10/11 05:12:56;;;;;;;8.00;7.20;;;13.50;99.90;;;;;;5032723;28;20229;-82
2022/10/11 05:15:29;;;;;;;7.80;6.95;;;13.40;99.90;;;;;;5032768;28;20206;-82
2022/10/11 05:18:03;;;;;;;14.60;8.35;;;13.40;99.90;;;;;;5032461;28;20232;-83
2022/10/11 05:20:32;;;;;;;8.75;7.85;;;13.40;99.90;;;;;;5032880;28;20218;-83
2022/10/11 05:23:01;;;;;;;8.50;7.45;;;13.30;99.90;;;;;;5032531;28;20214;-82
2022/10/11 05:25:29;;;;;;;11.38;9.18;;;13.30;99.90;;;;;;5032464;28;20229;-82
2022/10/11 05:27:58;;;;;;;7.40;6.68;;;13.30;99.90;;;;;;5032604;28;20231;-82
2022/10/11 05:30:26;;;;;;;8.60;7.70;;;13.20;99.90;;;;;;5032205;28;20207;-84
2022/10/11 05:32:55;;;;;;;11.98;8.70;;;13.20;99.90;;;;;;5032573;28;20217;-83
2022/10/11 05:35:25;;;;;;;7.85;7.15;;;13.20;99.90;;;;;;5032391;28;20214;-83
2022/10/11 05:37:54;;;;;;;8.80;7.78;;;13.20;99.90;;;;;;5032096;28;20242;-83
2022/10/11 05:40:22;;;;;;;9.43;7.60;;;13.20;99.90;;;;;;5032209;28;20229;-83
2022/10/11 05:42:50;;;;;;;10.88;7.57;;;13.20;99.90;;;;;;5032356;28;20206;-83
2022/10/11 05:45:19;;;;;;;12.18;7.70;;;13.10;99.90;;;;;;5031934;28;20211;-83
2022/10/11 05:47:49;;;;;;;7.75;7.05;;;13.10;99.90;;;;;;5032543;28;20226;-83
2022/10/11 05:50:21;;;;;;;8.40;7.60;;;13.10;99.90;;;;;;5031832;28;20252;-83
2022/10/11 05:52:53;;;;;;;9.15;7.38;;;13.10;99.90;;;;;;5032464;28;20209;-83
2022/10/11 05:55:21;;;;;;;9.05;7.30;;;13.10;99.90;;;;;;5032434;28;20289;-83
2022/10/11 05:57:52;;;;;;;10.40;8.98;;;13.10;99.90;;;;;;5031947;28;20226;-83
2022/10/11 06:00:21;;;;;;;9.48;8.18;;;13.10;99.90;;;;;;5032087;28;20210;-82
2022/10/11 06:02:50;;;;;;;9.68;8.10;;;13.10;99.90;;;;;;5032621;28;20202;-83
2022/10/11 06:05:19;;;;;;;8.32;7.53;;;13.10;99.90;;;;;;5032335;28;20209;-83
2022/10/11 06:07:47;;;;;;;9.52;7.75;;;13.20;99.90;;;;;;5032676;28;20226;-83
2022/10/11 06:10:23;;;;;;;11.93;9.07;;;13.20;99.90;;;;;;5031809;28;20218;-83
2022/10/11 06:12:53;;;;;;;8.77;7.97;;;13.30;99.90;;;;;;5032408;28;20202;-82
2022/10/11 06:15:22;;;;;;;8.82;7.93;;;13.30;99.90;;;;;;5032286;28;20212;-82
2022/10/11 06:17:51;;;;;;;9.25;7.47;;;13.40;99.90;;;;;;5031895;28;20253;-82
2022/10/11 06:20:20;;;;;;;8.90;7.15;;;13.50;99.90;;;;;;5033827;28;20218;-83
2022/10/11 06:22:48;;;;;;;7.70;5.88;;;13.50;99.90;;;;;;5035909;28;20218;-83
2022/10/11 06:25:18;;;;;;;7.80;6.97;;;13.60;99.90;;;;;;5035804;28;20206;-82
2022/10/11 06:27:47;;;;;;;8.57;7.05;;;13.60;99.90;;;;;;5035560;28;20258;-85
2022/10/11 06:30:15;;;;;;;7.57;6.82;;;13.70;99.90;;;;;;5035848;28;20209;-83
2022/10/11 06:32:44;;;;;;;9.48;8.00;;;13.70;99.90;;;;;;5035716;28;20202;-83
2022/10/11 06:35:32;;;;;;;8.90;8.02;;;13.80;99.90;;;;;;5035953;28;20202;-83
2022/10/11 06:38:00;;;;;;;8.75;7.63;;;13.90;99.90;;;;;;5035126;28;20224;-83
2022/10/11 06:40:29;;;;;;;9.90;7.90;;;13.90;99.90;;;;;;5036140;28;20205;-82
2022/10/11 06:42:58;;;;;;;8.88;7.50;;;13.80;99.90;;;;;;5035751;28;20202;-83
2022/10/11 06:45:26;;;;;;;10.80;8.02;;;13.80;99.90;;;;;;5036281;28;20221;-83
2022/10/11 06:47:55;;;;;;;9.18;7.28;;;13.90;99.90;;;;;;5035551;28;20250;-83
2022/10/11 06:50:24;;;;;;;30.83;7.90;;;13.90;99.90;;;;;;5035930;28;20210;-83
2022/10/11 06:53:12;;;;;;;9.43;7.63;;;13.90;99.90;;;;;;5035994;28;20201;-83
2022/10/11 06:55:42;;;;;;;11.30;7.32;;;13.90;99.90;;;;;;5034803;28;20214;-82
2022/10/11 06:58:10;;;;;;;13.20;9.10;;;14.00;99.90;;;;;;5035502;28;20231;-83
2022/10/11 07:00:38;;;;;;;9.88;8.40;;;14.00;99.90;;;;;;5035503;28;20210;-83
2022/10/11 07:03:07;;;;;;;7.43;6.63;;;14.00;99.90;;;;;;5036289;28;20206;-83
2022/10/11 07:05:36;;;;;;;9.65;8.63;;;14.00;99.90;;;;;;5035420;28;20208;-83
2022/10/11 07:08:04;;;;;;;8.15;7.15;;;14.10;99.90;;;;;;5036854;28;20224;-83
2022/10/11 07:10:38;;;;;;;18.08;7.63;;;14.10;99.90;;;;;;5035204;28;20211;-83
2022/10/11 07:13:08;;;;;;;8.60;7.75;;;14.10;99.90;;;;;;5035341;28;20198;-83
2022/10/11 07:15:43;;;;;;;7.82;7.13;;;14.10;99.90;;;;;;5035768;28;20274;-83
2022/10/11 07:18:11;;;;;;;8.95;7.03;;;14.20;99.90;;;;;;5034676;28;20229;-83
2022/10/11 07:20:40;;;;;;;7.10;5.88;;;14.20;99.90;;;;;;5035608;28;20213;-83
2022/10/11 07:23:08;;;;;;;7.20;6.43;;;14.30;99.90;;;;;;5035298;28;20207;-82
2022/10/11 07:25:36;;;;;;;8.77;6.90;;;14.30;99.90;;;;;;5035560;28;20206;-82
2022/10/11 07:28:07;;;;;;;9.00;8.20;;;14.40;99.90;;;;;;5034889;28;20240;-81
2022/10/11 07:30:39;;;;;;;9.57;8.70;;;14.40;99.90;;;;;;5034881;28;20217;-82
2022/10/11 07:33:08;;;;;;;11.23;9.70;;;14.50;99.90;;;;;;5035071;28;20199;-82
2022/10/11 07:35:37;;;;;;;11.18;10.05;;;14.50;99.90;;;;;;5034620;28;20210;-82
2022/10/11 07:38:07;;;;;;;14.40;10.13;;;14.60;99.90;;;;;;5034501;28;20223;-85
2022/10/11 07:40:42;;;;;;;10.40;9.50;;;14.60;99.90;;;;;;5034356;28;20208;-83
2022/10/11 07:43:13;;;;;;;11.35;9.98;;;14.70;99.90;;;;;;5035026;28;20202;-84
2022/10/11 07:45:44;;;;;;;11.70;10.48;;;14.80;99.90;;;;;;5034702;28;20209;-83
2022/10/11 07:48:16;;;;;;;11.13;9.82;;;14.90;99.90;;;;;;5034184;28;20220;-82
2022/10/11 07:50:45;;;;;;;11.65;10.27;;;14.90;99.90;;;;;;5034514;28;20203;-82
2022/10/11 07:53:14;;;;;;;10.57;8.65;;;15.00;99.90;;;;;;5034123;28;20191;-81
2022/10/11 07:55:42;;;;;;;10.45;9.35;;;15.10;99.90;;;;;;5034082;28;20202;-84
2022/10/11 07:58:13;;;;;;;9.93;8.73;;;15.20;99.90;;;;;;5034064;28;20230;-84
2022/10/11 08:00:42;;;;;;;10.20;8.65;;;15.40;99.90;;;;;;5034483;28;20202;-83
2022/10/11 08:03:10;;;;;;;14.57;9.73;;;15.40;99.90;;;;;;5034883;28;20206;-84
2022/10/11 08:05:38;;;;;;;10.60;9.50;;;15.50;99.90;;;;;;5034100;28;20198;-84
2022/10/11 08:08:07;;;;;;;8.35;7.60;;;15.60;99.90;;;;;;5034433;28;20226;-83
2022/10/11 08:10:38;;;;;;;9.07;8.18;;;15.70;99.90;;;;;;5033906;28;20226;-83
2022/10/11 08:13:06;;;;;;;12.82;8.88;;;15.80;99.90;;;;;;5033535;28;20210;-84
2022/10/11 08:15:36;;;;;;;7.85;7.13;;;15.80;99.90;;;;;;5033965;28;20261;-83
2022/10/11 08:18:04;;;;;;;9.07;8.18;;;15.90;99.90;;;;;;5033024;28;20219;-84
2022/10/11 08:20:33;;;;;;;9.82;8.88;;;16.10;99.90;;;;;;5034107;28;20215;-85
2022/10/11 08:23:01;;;;;;;8.63;7.53;;;16.20;99.90;;;;;;5036770;28;20211;-83
2022/10/11 08:25:29;;;;;;;11.80;8.75;;;16.30;99.90;;;;;;5033959;28;20210;-83
2022/10/11 08:27:57;;;;;;;7.60;6.90;;;16.40;99.90;;;;;;5033649;28;20226;-83
2022/10/11 08:30:26;;;;;;;9.85;7.75;;;16.60;99.90;;;;;;5033486;28;20202;-84
2022/10/11 08:32:55;;;;;;;12.90;8.38;;;16.70;99.90;;;;;;5033805;28;20210;-83
2022/10/11 08:35:24;;;;;;;10.82;7.90;;;17.00;99.90;;;;;;5033680;28;20221;-84
2022/10/11 08:37:52;;;;;;;13.82;6.85;;;17.10;99.90;;;;;;5033412;28;20231;-83
2022/10/11 08:40:22;;;;;;;12.38;6.55;;;17.30;99.90;;;;;;5033475;28;20199;-84
2022/10/11 08:42:56;;;;;;;6.50;5.90;;;17.40;99.90;;;;;;5033499;28;20218;-84
2022/10/11 08:45:31;;;;;;;6.03;5.40;;;17.60;99.90;;;;;;5034458;28;20202;-84
2022/10/11 08:48:13;;;;;;;6.68;5.70;;;17.70;99.90;;;;;;5033987;28;20375;-84
2022/10/11 08:50:44;;;;;;;9.40;5.72;;;17.70;99.90;;;;;;5033368;28;20210;-83
2022/10/11 08:53:21;;;;;;;6.20;5.60;;;17.70;99.90;;;;;;5033954;28;20201;-83
2022/10/11 08:55:52;;;;;;;6.07;5.47;;;17.70;99.90;;;;;;5033887;28;20210;-85
2022/10/11 08:58:24;;;;;;;6.97;6.15;;;17.80;99.90;;;;;;5033257;28;20226;-82
2022/10/11 09:00:54;;;;;;;7.13;5.15;;;18.00;99.90;;;;;;5033794;28;20210;-83
2022/10/11 09:03:31;;;;;;;15.77;5.22;;;18.20;99.90;;;;;;5032728;28;20198;-84
2022/10/11 09:06:08;;;;;;;4.60;4.18;;;18.60;99.90;;;;;;5033850;28;20198;-83
2022/10/11 09:08:50;;;;;;;6.18;4.90;;;19.10;99.90;;;;;;5033259;28;20294;-82
2022/10/11 09:11:35;;;;;;;6.35;5.18;;;19.70;99.90;;;;;;5032748;28;20202;-82
2022/10/11 09:14:20;;;;;;;5.25;4.63;;;20.10;99.90;;;;;;5033336;28;20207;-82
2022/10/11 09:16:57;;;;;;;5.82;5.15;;;20.40;99.90;;;;;;5032435;28;20226;-82
2022/10/11 09:20:06;;;;;;;6.82;5.05;;;20.60;99.90;;;;;;5032110;28;20224;-83
2022/10/11 09:22:47;;;;;;;6.15;4.78;;;21.20;99.90;;;;;;5032868;28;20210;-83
2022/10/11 09:25:28;;;;;;;4.57;4.18;;;21.60;99.90;;;;;;5032704;28;20209;-82
2022/10/11 09:28:10;;;;;;;5.72;4.30;;;21.80;99.90;;;;;;5032442;28;20234;-83
2022/10/11 09:30:45;;;;;;;5.00;4.50;;;21.90;99.90;;;;;;5032476;28;20213;-82
2022/10/11 09:33:18;;;;;;;4.72;4.20;;;21.70;99.90;;;;;;5032535;28;20197;-83
2022/10/11 09:35:50;;;;;;;5.25;4.63;;;21.90;99.90;;;;;;5032742;28;20217;-83
2022/10/11 09:38:28;;;;;;;6.43;5.05;;;21.60;99.90;;;;;;5032596;28;20234;-82
2022/10/11 09:41:06;;;;;;;6.13;4.18;;;21.10;99.90;;;;;;5032576;28;20213;-83
2022/10/11 09:43:34;;;;;;;4.68;4.15;;;21.10;99.90;;;;;;5032963;28;20202;-82
2022/10/11 09:46:02;;;;;;;7.82;4.50;;;21.20;99.90;;;;;;5032325;28;20206;-82
2022/10/11 09:48:38;;;;;;;4.10;3.70;;;21.20;99.90;;;;;;5032105;28;20226;-82
2022/10/11 09:51:15;;;;;;;5.72;4.20;;;21.20;99.90;;;;;;5032825;28;20216;-81
2022/10/11 09:53:55;;;;;;;25.85;4.65;;;21.10;99.90;;;;;;5033311;28;20201;-82
2022/10/11 09:56:25;;;;;;;3.88;3.58;;;20.90;99.90;;;;;;5036361;28;20212;-82
2022/10/11 09:59:08;;;;;;;15.20;4.40;;;20.70;99.90;;;;;;5036059;28;20308;-83
2022/10/11 10:01:37;;;;;;;5.15;4.32;;;20.90;99.90;;;;;;5036709;28;20221;-83
2022/10/11 10:04:13;;;;;;;4.38;3.83;;;21.10;99.90;;;;;;5036712;28;20206;-82
2022/10/11 10:06:43;;;;;;;4.55;4.15;;;21.30;99.90;;;;;;5036020;28;20283;-82
2022/10/11 10:09:26;;;;;;;4.93;4.10;;;21.30;99.90;;;;;;5035964;28;20202;-81
2022/10/11 10:11:56;;;;;;;4.78;4.00;;;21.20;99.90;;;;;;5036532;28;20214;-82
2022/10/11 10:14:28;;;;;;;8.85;4.45;;;21.20;99.90;;;;;;5036374;28;20221;-82
2022/10/11 10:17:02;;;;;;;4.38;3.83;;;21.20;99.90;;;;;;5036041;28;20257;-82
2022/10/11 10:19:38;;;;;;;4.75;4.25;;;21.40;99.90;;;;;;5032865;28;20228;-82
2022/10/11 10:22:19;;;;;;;9.55;4.18;;;21.80;99.90;;;;;;5033544;28;20214;-82
2022/10/11 10:24:51;;;;;;;4.95;4.45;;;22.20;99.90;;;;;;5035425;28;20216;-82
2022/10/11 10:27:22;;;;;;;5.28;4.22;;;22.70;99.90;;;;;;5035914;28;20241;-83
2022/10/11 10:30:07;;;;;;;4.18;3.65;;;23.00;99.90;;;;;;5036170;28;20211;-82
2022/10/11 10:32:42;;;;;;;4.30;3.47;;;23.20;99.90;;;;;;5036162;28;20214;-83
2022/10/11 10:35:26;;;;;;;4.00;3.63;;;23.60;99.90;;;;;;5035964;28;20292;-83
2022/10/11 10:38:06;;;;;;;4.00;3.60;;;23.90;99.90;;;;;;5035510;28;20234;-83
2022/10/11 10:40:41;;;;;;;5.45;3.97;;;24.10;99.90;;;;;;5035222;28;20237;-82
2022/10/11 10:43:17;;;;;;;4.32;3.92;;;23.90;99.90;;;;;;5035916;28;20214;-82
2022/10/11 10:46:19;;;;;;;6.85;4.13;;;23.80;99.90;;;;;;5035679;28;20214;-82
2022/10/11 10:48:55;;;;;;;4.30;3.90;;;23.70;99.90;;;;;;5035316;28;20221;-82
2022/10/11 10:52:01;;;;;;;4.70;4.00;;;23.90;99.90;;;;;;5035237;28;20252;-82
2022/10/11 10:54:44;;;;;;;5.05;4.38;;;24.40;99.90;;;;;;5035319;28;20270;-83
2022/10/11 10:57:20;;;;;;;4.97;4.00;;;25.00;99.90;;;;;;5035385;28;20222;-82
2022/10/11 11:00:04;;;;;;;5.00;4.60;;;25.20;99.90;;;;;;5035016;28;20272;-82
2022/10/11 11:02:38;;;;;;;5.07;4.57;;;25.00;99.90;;;;;;5035206;28;20225;-83
2022/10/11 11:05:20;;;;;;;4.57;4.13;;;25.00;99.90;;;;;;5034622;28;20238;-83
2022/10/11 11:07:54;;;;;;;14.43;3.65;;;25.00;99.90;;;;;;5035077;28;20227;-83
2022/10/11 11:10:29;;;;;;;3.92;3.50;;;24.50;99.90;;;;;;5035192;28;20209;-83
2022/10/11 11:13:08;;;;;;;3.40;3.10;;;24.40;99.90;;;;;;5035620;28;20216;-83
2022/10/11 11:15:40;;;;;;;3.78;3.38;;;24.60;99.90;;;;;;5035272;28;20210;-83
2022/10/11 11:18:24;;;;;;;3.58;3.28;;;24.50;99.90;;;;;;5035117;28;20226;-83
2022/10/11 11:21:12;;;;;;;5.63;3.35;;;24.50;99.90;;;;;;5034860;28;20301;-82
2022/10/11 11:23:47;;;;;;;5.30;3.80;;;24.30;99.90;;;;;;5033340;28;20203;-82
2022/10/11 11:26:25;;;;;;;4.70;3.45;;;24.50;99.90;;;;;;5035326;28;20208;-82
2022/10/11 11:29:06;;;;;;;3.83;2.92;;;24.70;99.90;;;;;;5034687;28;20210;-82
2022/10/11 11:31:49;;;;;;;3.95;2.83;;;24.80;99.60;;;;;;5035034;28;20288;-83
2022/10/11 11:34:24;;;;;;;3.20;2.90;;;25.50;99.90;;;;;;5034653;28;20211;-82
2022/10/11 11:36:56;;;;;;;4.57;3.30;;;25.50;99.90;;;;;;5034529;28;20221;-83
2022/10/11 11:39:28;;;;;;;9.75;3.05;;;25.80;99.60;;;;;;5034725;28;20209;-83
2022/10/11 11:42:04;;;;;;;3.13;2.88;;;25.70;99.30;;;;;;5034788;28;20274;-83
2022/10/11 11:44:37;;;;;;;4.53;3.55;;;25.70;97.70;;;;;;5034540;28;20210;-83
2022/10/11 11:47:12;;;;;;;3.28;2.97;;;25.70;97.10;;;;;;5034472;28;20230;-83
2022/10/11 11:49:44;;;;;;;4.07;3.25;;;25.80;96.40;;;;;;5034089;28;20201;-83
2022/10/11 11:52:20;;;;;;;3.72;3.42;;;25.70;96.30;;;;;;5034836;28;20206;-83
2022/10/11 11:54:55;;;;;;;6.10;3.33;;;25.50;97.00;;;;;;5034607;28;20202;-82
2022/10/11 11:57:47;;;;;;;4.15;3.33;;;26.00;97.20;;;;;;5034375;28;20226;-83
2022/10/11 12:00:18;;;;;;;3.20;2.97;;;;;;;;;;5034069;28;20222;-80
2022/10/11 12:02:51;;;;;;;3.90;3.50;;;26.40;95.20;;;;;;5034343;28;20214;-81
2022/10/11 12:05:23;;;;;;;4.78;3.25;;;26.30;95.00;;;;;;5034130;28;20245;-81
2022/10/11 12:07:57;;;;;;;5.35;3.08;;;26.40;94.90;;;;;;5034219;28;20222;-81
2022/10/11 12:10:31;;;;;;;6.50;4.00;;;26.70;95.10;;;;;;5033771;28;20202;-81
2022/10/11 12:13:27;;;;;;;3.42;2.92;;;26.30;94.90;;;;;;5034113;28;20210;-82
2022/10/11 12:16:09;;;;;;;5.15;3.40;;;26.20;95.90;;;;;;5025803;28;20278;-83
2022/10/11 12:18:48;;;;;;;8.05;3.28;;;26.50;94.70;;;;;;5032837;28;20222;-82
2022/10/11 12:21:25;;;;;;;4.10;3.65;;;26.40;94.20;;;;;;5033953;28;20233;-83
2022/10/11 12:23:55;;;;;;;3.55;3.05;;;26.20;93.50;;;;;;5033856;28;20210;-82
2022/10/11 12:26:42;;;;;;;3.17;2.78;;;26.00;93.60;;;;;;5033468;28;20202;-83
2022/10/11 12:29:47;;;;;;;3.13;2.88;;;26.00;93.10;;;;;;5033743;28;20202;-82
2022/10/11 12:32:52;;;;;;;4.03;3.60;;;26.00;94.10;;;;;;5033534;28;20202;-82
2022/10/11 12:35:52;;;;;;;3.28;2.83;;;25.80;93.60;;;;;;5033735;28;20211;-81
2022/10/11 12:38:23;;;;;;;4.30;3.70;;;26.00;93.10;;;;;;5033497;28;20240;-81
2022/10/11 12:40:53;;;;;;;7.47;3.72;;;25.90;92.80;;;;;;5033239;28;20249;-81
2022/10/11 12:44:01;;;;;;;5.32;3.33;;;26.10;92.60;;;;;;5033725;28;20293;-81
2022/10/11 12:46:40;;;;;;;3.78;3.33;;;26.20;93.20;;;;;;5033514;28;20213;-81
2022/10/11 12:49:27;;;;;;;18.30;3.22;;;26.30;93.50;;;;;;5032900;28;20206;-81
2022/10/11 12:52:03;;;;;;;4.05;2.88;;;26.40;93.30;;;;;;5033776;28;20230;-81
2022/10/11 12:55:19;;;;;;;3.55;3.15;;;26.40;92.40;;;;;;5033518;28;20238;-81
2022/10/11 12:58:18;;;;;;;3.65;2.90;;;26.40;92.00;;;;;;5013635;28;20242;-81
2022/10/11 13:01:16;;;;;;;2.60;2.25;;;26.40;91.70;;;;;;5033026;28;20222;-81
2022/10/11 13:03:51;;;;;;;5.35;2.83;;;26.60;90.30;;;;;;5033023;28;20254;-81
2022/10/11 13:06:23;;;;;;;9.07;3.33;;;26.90;91.40;;;;;;5032881;28;20206;-81
2022/10/11 13:08:56;;;;;;;4.57;3.35;;;27.20;87.80;;;;;;5032736;28;20214;-81
2022/10/11 13:11:33;;;;;;;2.85;2.53;;;27.00;86.70;;;;;;5032934;28;20199;-80
2022/10/11 13:14:08;;;;;;;2.90;2.70;;;26.90;86.70;;;;;;5032987;28;20236;-80
2022/10/11 13:16:59;;;;;;;3.15;2.80;;;26.60;86.90;;;;;;5033120;28;20237;-80
2022/10/11 13:19:30;;;;;;;2.78;2.55;;;26.20;90.30;;;;;;5032603;28;20217;-79